Pt. Reyes RCA field Weather observations

Data are for 10 minute period ending at time listed.
 Day   Time   Solar   Ave.   Ave.  Ave.  Vector    Max.   Stn.   Total 
  of    of     Rad.   Air    Rel.  Wind   Wind     Wind   Baro. Precip.
Year   Day            Temp.  Hum.  Speed  Dir.     Gust   Pres.        
2014   (PST)   W/m2    F      %     mph   deg.      mph    mb.    in.  
-----------------------------------------------------------------------
 210   17:30   86.0    57   91.1     7    273.5     9.6   1012.9  0.00  
 210   17:40   89.0    57   90.8     8    279.1    10.7   1012.9  0.00  
 210   17:50   91.0    57   91.1     7    277.2    10.0   1012.9  0.00  
 210   18:00   70.0    57   91.3     8    276.4    10.7   1012.9  0.00  
 210   18:10   48.0    57   92.1     7    287.5    11.4   1012.9  0.00  
 210   18:20   45.0    57   92.2     8    283.2    10.7   1012.9  0.00  
 210   18:30   33.0    56   92.6     6    283.1     9.1   1012.9  0.00  
 210   18:40   27.0    56   92.9     7    289.7     9.6   1012.9  0.00  
 210   18:50   17.0    56   93.6     6    291.7     8.6   1012.9  0.00  
 210   19:00   12.0    56   94.2     7    285.1    10.5   1012.5  0.00  
 210   19:10    7.0    56   94.4     5    300.2     7.2   1012.9  0.00  
 210   19:20    3.0    56   94.7     3    299.5     7.6   1012.9  0.00  
 210   19:30    0.0    56   94.8     6    302.9     8.6   1012.9  0.00  
 210   19:40    0.0    56   95.0     5    284.8     8.6   1012.9  0.00  
 210   19:50    0.0    56   95.1     5    278.8     7.3   1012.9  0.00  
 210   20:00    0.0    56   95.4     5    275.6     8.6   1012.9  0.00  
 210   20:10    0.0    56   95.6     6    281.9     8.6   1012.9  0.00  
 210   20:20    0.0    56   95.7     6    291.8     9.4   1012.9  0.00  
 210   20:30    0.0    56   95.7     7    288.4    11.0   1012.9  0.00  
 210   20:40    0.0    56   95.6     7    301.4     9.6   1012.9  0.00  
 210   20:50    0.0    56   95.7     6    292.4     8.8   1012.9  0.00  
 210   21:00    0.0    56   95.9     7    308.6     8.7   1012.9  0.00  
 210   21:10    0.0    56   95.9     8    305.2     9.6   1012.9  0.00  
 210   21:20    0.0    56   96.0     7    293.6    10.7   1012.9  0.00  
 210   21:30    0.0    56   96.1     7    307.2     9.9   1012.9  0.00  
 210   21:40    0.0    56   96.2     6    292.9     9.6   1012.9  0.00  
 210   21:50    0.0    56   96.2     6    297.6     8.8   1012.9  0.00  
 210   22:00    0.0    56   96.3     6    283.6    10.4   1012.9  0.00  
 210   22:10    0.0    56   96.4     7    281.0     9.9   1012.9  0.00  
 210   22:20    0.0    56   96.5     6    280.1     8.3   1012.9  0.00  
 210   22:30    0.0    55   96.6     7    285.0    10.7   1012.9  0.00  
 210   22:40    0.0    55   96.7     7    280.5     9.3   1012.5  0.00  
 210   22:50    0.0    55   96.7     7    274.4     9.5   1012.5  0.00  
 210   23:00    0.0    55   96.8     6    276.2     9.5   1012.5  0.00  
 210   23:10    0.0    55   96.8     7    278.8     9.5   1012.5  0.00  
 210   23:20    0.0    55   96.9     7    274.4    10.2   1012.5  0.00  
 210   23:30    0.0    55   96.9     6    265.3     8.4   1012.5  0.00  
 210   23:40    0.0    55   97.0     6    277.4     8.5   1012.5  0.00  
 210   23:50    0.0    55   97.0     6    269.8     7.8   1012.5  0.00  
 211    0:00    0.0    55   97.1     5    281.4     7.9   1012.5  0.00  
 211    0:10    0.0    55   97.1     6    289.1     9.6   1012.5  0.00  
 211    0:20    0.0    55   97.1     6    304.3     8.8   1012.2  0.00  
 211    0:30    0.0    55   97.2     6    293.8     8.2   1012.2  0.00  
 211    0:40    0.0    55   97.2     6    296.8     9.8   1011.9  0.00  
 211    0:50    0.0    55   97.2     6    288.5     8.6   1011.9  0.00  
 211    1:00    0.0    55   97.2     7    286.0     9.6   1011.9  0.00  
 211    1:10    0.0    55   97.2     6    290.8     8.6   1011.9  0.00  
 211    1:20    0.0    55   97.3     6    288.4     8.9   1011.9  0.00  
 211    1:30    0.0    55   97.3     5    272.3     7.4   1011.9  0.00  
 211    1:40    0.0    55   97.3     5    274.3     7.8   1011.9  0.00  
 211    1:50    0.0    55   97.3     4    279.0     7.5   1011.9  0.00  
 211    2:00    0.0    55   97.3     4    263.0     6.4   1011.9  0.00  
 211    2:10    0.0    55   97.4     5    283.4     6.6   1011.5  0.00  
 211    2:20    0.0    55   97.4     4    259.9     6.3   1011.5  0.00  
 211    2:30    0.0    55   97.4     2    248.8     6.2   1011.5  0.00  
 211    2:40    0.0    55   97.4     4    269.1     6.6   1011.5  0.00  
 211    2:50    0.0    55   97.5     3    251.4     3.9   1011.5  0.00  
 211    3:00    0.0    55   97.5     4    258.1     6.4   1011.5  0.00  
 211    3:10    0.0    54   97.5     5    266.5     6.1   1011.5  0.00  
 211    3:20    0.0    54   97.5     4    261.1     7.3   1011.5  0.00  
 211    3:30    0.0    54   97.5     2    258.9     2.6   1011.5  0.00  
 211    3:40    0.0    54   97.5     5    239.9     7.2   1011.5  0.00  
 211    3:50    0.0    54   97.6     4    222.1     5.2   1011.5  0.00  
 211    4:00    0.0    54   97.6     3    223.5     4.7   1011.5  0.00  
 211    4:10    0.0    54   97.6     5    196.5     7.0   1011.5  0.00  
 211    4:20    0.0    54   97.6     5    178.0     6.9   1011.5  0.00  
 211    4:30    0.0    54   97.6     5    222.2     8.0   1011.9  0.00  
 211    4:40    0.0    54   97.7     6    216.5     8.0   1011.9  0.00  
 211    4:50    0.0    54   97.7     5    211.4     6.9   1011.9  0.00  
 211    5:00    0.0    54   97.7     6    188.9     6.6   1011.9  0.00  
 211    5:10    0.0    54   97.7     4    170.8     5.6   1011.9  0.00  
 211    5:20    0.0    54   97.7     4    155.8     6.1   1012.2  0.00  
 211    5:30    3.0    54   97.7     5    137.5     6.6   1012.2  0.00  
 211    5:40    6.0    54   97.7     5    144.2     7.4   1012.2  0.00  
 211    5:50    9.0    54   97.7     5    148.7     7.5   1012.2  0.00  
 211    6:00   14.0    55   97.7     6    156.6     8.6   1012.2  0.00  
 211    6:10   21.0    55   97.8     6    175.4     9.6   1012.2  0.00  
 211    6:20   26.0    55   97.8     6    198.4     8.9   1012.5  0.00  
 211    6:30   29.0    55   97.8     6    195.0     7.7   1012.5  0.00  
 211    6:40   42.0    55   97.8     6    193.8     8.2   1012.5  0.00  
 211    6:50   50.0    55   97.8     6    197.3     8.5   1012.5  0.00  
 211    7:00   56.0    55   97.8     6    184.8     8.2   1012.5  0.00  
 211    7:10   80.0    55   97.8     7    165.2     8.9   1012.5  0.00  
 211    7:20   86.0    55   97.8     7    183.8    11.3   1012.5  0.00  
 211    7:30  100.0    55   97.7     7    171.9    10.2   1012.5  0.00  
 211    7:40  104.0    55   97.7     6    160.2     8.3   1012.5  0.00  
 211    7:50  119.0    56   97.7     7    159.1    10.2   1012.9  0.00  
 211    8:00  117.0    56   97.7     6    161.8     8.8   1012.9  0.00  
 211    8:10  132.0    56   97.7     6    142.8     8.3   1012.9  0.00  
 211    8:20  164.0    56   97.6     6    134.6     9.2   1012.9  0.00  
 211    8:30  171.0    56   97.5     6    137.2     8.7   1012.9  0.00  
 211    8:40  214.0    57   97.3     6    141.5    10.8   1012.9  0.00  
 211    8:50  243.0    57   96.8     6    152.1     8.8   1012.9  0.00  
 211    9:00  298.0    58   95.4     7    157.1    10.2   1012.9  0.00  
 211    9:10  358.0    58   92.8     7    155.4    11.3   1012.9  0.00  
 211    9:20  312.0    58   92.3     8    163.5    11.1   1012.9  0.00  
 211    9:30  326.0    59   90.8     8    170.7    11.0   1012.9  0.00  
 211    9:40  352.0    59   89.8     7    170.4    12.0   1012.9  0.00  
 211    9:50  399.0    60   88.1     7    168.4    10.1   1013.2  0.00  
 211   10:00  448.0    60   86.6     7    177.3     9.6   1013.2  0.00  
 211   10:10  420.0    60   85.7     7    188.6    11.0   1013.2  0.00  
 211   10:20  563.0    61   83.7     8    166.5    11.2   1013.2  0.00  
 211   10:30  631.0    61   83.0     8    149.3    13.0   1013.2  0.00  
 211   10:40  700.0    62   80.7     9    147.8    12.6   1013.2  0.00  
 211   10:50  755.0    63   79.9    10    141.7    12.9   1013.2  0.00  
 211   11:00  894.0    63   78.9     9    146.6    13.9   1013.2  0.00  
 211   11:10  871.0    64   76.6     7    151.8    11.7   1013.2  0.00  
 211   11:20  895.0    65   75.2     7    190.6    11.6   1013.2  0.00  
 211   11:30  805.0    63   80.4     8    238.1    11.5   1013.2  0.00  
 211   11:40  795.0    62   81.8     9    235.2    13.4   1012.9  0.00  
 211   11:50  815.0    62   82.0     9    254.1    12.9   1012.9  0.00  
 211   12:00  836.0    63   80.4     9    240.8    12.8   1012.9  0.00  
 211   12:10  854.0    63   79.6     8    238.3    12.2   1012.9  0.00  
 211   12:20  854.0    63   78.8     9    245.5    14.5   1012.5  0.00  
 211   12:30  853.0    64   77.6     9    240.3    12.5   1012.5  0.00  
 211   12:40  853.0    63   78.0     9    241.6    12.6   1012.5  0.00  
 211   12:50  851.0    64   77.0    10    240.5    14.7   1012.5  0.00  
 211   13:00  846.0    63   78.2    12    243.0    15.2   1012.5  0.00  
 211   13:10  841.0    63   79.4    12    242.8    14.9   1012.5  0.00  
 211   13:20  836.0    63   78.5    11    240.1    13.7   1012.5  0.00  
 211   13:30  812.0    63   79.4    10    251.2    14.3   1012.5  0.00  
 211   13:40  807.0    63   79.1    10    254.0    14.0   1012.5  0.00  
 211   13:50  799.0    62   81.3    10    267.0    13.4   1012.2  0.00  
 211   14:00  775.0    62   81.6     9    273.7    12.9   1012.5  0.00  
 211   14:10  713.0    62   80.0     9    275.8    12.6   1012.5  0.00  
 211   14:20  606.0    62   81.0     9    266.8    12.3   1012.2  0.00  
 211   14:30  492.0    62   82.7     9    274.7    12.2   1012.2  0.00  
 211   14:40  476.0    61   84.1     9    270.0    12.8   1012.2  0.00  
 211   14:50  468.0    61   83.3     8    267.6    11.3   1012.2  0.00  
 211   15:00  420.0    60   83.5     8    267.3    11.7   1012.2  0.00  
 211   15:10  419.0    60   83.8     9    278.1    12.2   1012.2  0.00  
 211   15:20  347.0    60   84.7     9    269.0    12.1   1012.2  0.00  
 211   15:30  316.0    60   85.7     9    266.7    11.6   1012.2  0.00  
 211   15:40  311.0    59   86.4     8    269.6    11.6   1012.2  0.00  
 211   15:50  264.0    59   86.7     8    281.4    11.1   1011.9  0.00  
 211   16:00  263.0    59   85.9     8    276.3    11.4   1011.9  0.00  
 211   16:10  232.0    58   87.6     9    267.5    11.7   1011.9  0.00  
 211   16:20  244.0    58   88.8     7    280.3    10.3   1011.9  0.00  
 211   16:30  190.0    58   88.9     7    276.1    10.5   1011.9  0.00  
 211   16:40  164.0    58   89.3     7    279.9     9.9   1011.9  0.00  
 211   16:50  138.0    57   90.0     7    271.1    10.9   1011.9  0.00  
 211   17:00  115.0    57   90.4     6    280.7     8.6   1011.9  0.00  
 211   17:10  118.0    57   90.5     8    267.9    11.2   1011.9  0.00  
 211   17:20  105.0    57   91.1     7    283.2    11.7   1011.5  0.00  

Return to Pt. Reyes graphs page.


Western Regional Climate Center,wrcc@dri.edu